sensor_id;sensor_type;location;lat;lon;timestamp;P1;durP1;ratioP1;P2;durP2;ratioP2
70406;SDS011;57821;52.202;0.154;2023-04-01T00:01:00;17.63;;;10.57;;
70406;SDS011;57821;52.202;0.154;2023-04-01T00:03:27;17.00;;;9.13;;
70406;SDS011;57821;52.202;0.154;2023-04-01T00:05:55;19.95;;;10.02;;
70406;SDS011;57821;52.202;0.154;2023-04-01T00:08:23;18.08;;;9.57;;
70406;SDS011;57821;52.202;0.154;2023-04-01T00:10:52;17.50;;;9.73;;
70406;SDS011;57821;52.202;0.154;2023-04-01T00:13:19;17.15;;;8.75;;
70406;SDS011;57821;52.202;0.154;2023-04-01T00:15:47;15.38;;;8.75;;
70406;SDS011;57821;52.202;0.154;2023-04-01T00:18:13;17.85;;;9.60;;
70406;SDS011;57821;52.202;0.154;2023-04-01T00:20:47;13.98;;;8.00;;
70406;SDS011;57821;52.202;0.154;2023-04-01T00:23:15;15.52;;;7.80;;
70406;SDS011;57821;52.202;0.154;2023-04-01T00:25:42;12.40;;;6.63;;
70406;SDS011;57821;52.202;0.154;2023-04-01T00:28:10;12.63;;;6.50;;
70406;SDS011;57821;52.202;0.154;2023-04-01T00:30:36;12.18;;;6.47;;
70406;SDS011;57821;52.202;0.154;2023-04-01T00:33:04;9.48;;;5.63;;
70406;SDS011;57821;52.202;0.154;2023-04-01T00:35:30;12.35;;;5.95;;
70406;SDS011;57821;52.202;0.154;2023-04-01T00:37:57;12.02;;;6.47;;
70406;SDS011;57821;52.202;0.154;2023-04-01T00:40:29;12.30;;;7.32;;
70406;SDS011;57821;52.202;0.154;2023-04-01T00:42:58;18.30;;;7.90;;
70406;SDS011;57821;52.202;0.154;2023-04-01T00:47:58;17.55;;;9.00;;
70406;SDS011;57821;52.202;0.154;2023-04-01T00:50:29;17.10;;;8.52;;
70406;SDS011;57821;52.202;0.154;2023-04-01T00:52:58;18.00;;;8.00;;
70406;SDS011;57821;52.202;0.154;2023-04-01T00:55:26;14.45;;;7.88;;
70406;SDS011;57821;52.202;0.154;2023-04-01T00:57:55;16.70;;;8.98;;
70406;SDS011;57821;52.202;0.154;2023-04-01T01:00:24;18.75;;;8.23;;
70406;SDS011;57821;52.202;0.154;2023-04-01T01:02:51;16.38;;;8.48;;
70406;SDS011;57821;52.202;0.154;2023-04-01T01:05:19;14.52;;;8.02;;
70406;SDS011;57821;52.202;0.154;2023-04-01T01:10:38;16.08;;;7.70;;
70406;SDS011;57821;52.202;0.154;2023-04-01T01:13:13;12.38;;;7.38;;
70406;SDS011;57821;52.202;0.154;2023-04-01T01:16:01;12.80;;;6.97;;
70406;SDS011;57821;52.202;0.154;2023-04-01T01:18:40;13.65;;;8.00;;
70406;SDS011;57821;52.202;0.154;2023-04-01T01:21:22;14.73;;;7.50;;
70406;SDS011;57821;52.202;0.154;2023-04-01T01:35:24;10.85;;;6.57;;
70406;SDS011;57821;52.202;0.154;2023-04-01T01:38:06;10.63;;;6.07;;
70406;SDS011;57821;52.202;0.154;2023-04-01T01:40:39;11.18;;;5.30;;
70406;SDS011;57821;52.202;0.154;2023-04-01T01:43:09;10.80;;;5.20;;
70406;SDS011;57821;52.202;0.154;2023-04-01T01:45:40;7.70;;;4.57;;
70406;SDS011;57821;52.202;0.154;2023-04-01T01:48:12;13.15;;;4.70;;
70406;SDS011;57821;52.202;0.154;2023-04-01T01:50:39;11.77;;;4.28;;
70406;SDS011;57821;52.202;0.154;2023-04-01T01:53:10;15.13;;;4.65;;
70406;SDS011;57821;52.202;0.154;2023-04-01T01:55:39;11.02;;;4.65;;
70406;SDS011;57821;52.202;0.154;2023-04-01T01:58:09;11.82;;;4.85;;
70406;SDS011;57821;52.202;0.154;2023-04-01T02:00:39;10.10;;;4.80;;
70406;SDS011;57821;52.202;0.154;2023-04-01T02:03:09;13.93;;;4.95;;
70406;SDS011;57821;52.202;0.154;2023-04-01T02:05:38;10.93;;;4.50;;
70406;SDS011;57821;52.202;0.154;2023-04-01T02:08:10;9.13;;;4.43;;
70406;SDS011;57821;52.202;0.154;2023-04-01T02:10:42;13.15;;;4.50;;
70406;SDS011;57821;52.202;0.154;2023-04-01T02:13:18;11.05;;;4.72;;
70406;SDS011;57821;52.202;0.154;2023-04-01T02:15:52;9.30;;;4.70;;
70406;SDS011;57821;52.202;0.154;2023-04-01T02:18:23;9.88;;;4.10;;
70406;SDS011;57821;52.202;0.154;2023-04-01T02:20:49;8.68;;;4.15;;
70406;SDS011;57821;52.202;0.154;2023-04-01T02:23:17;8.48;;;3.97;;
70406;SDS011;57821;52.202;0.154;2023-04-01T02:25:44;8.27;;;4.20;;
70406;SDS011;57821;52.202;0.154;2023-04-01T02:28:12;7.38;;;4.10;;
70406;SDS011;57821;52.202;0.154;2023-04-01T02:30:40;8.95;;;4.20;;
70406;SDS011;57821;52.202;0.154;2023-04-01T02:33:09;6.85;;;3.92;;
70406;SDS011;57821;52.202;0.154;2023-04-01T02:35:36;8.05;;;4.03;;
70406;SDS011;57821;52.202;0.154;2023-04-01T02:38:03;8.73;;;4.28;;
70406;SDS011;57821;52.202;0.154;2023-04-01T02:40:40;9.30;;;4.57;;
70406;SDS011;57821;52.202;0.154;2023-04-01T02:43:09;8.73;;;4.38;;
70406;SDS011;57821;52.202;0.154;2023-04-01T02:45:35;10.60;;;4.22;;
70406;SDS011;57821;52.202;0.154;2023-04-01T02:48:02;10.73;;;4.35;;
70406;SDS011;57821;52.202;0.154;2023-04-01T02:50:29;9.85;;;4.85;;
70406;SDS011;57821;52.202;0.154;2023-04-01T02:52:55;12.65;;;5.07;;
70406;SDS011;57821;52.202;0.154;2023-04-01T02:55:22;8.18;;;4.25;;
70406;SDS011;57821;52.202;0.154;2023-04-01T02:57:48;10.07;;;4.50;;
70406;SDS011;57821;52.202;0.154;2023-04-01T03:00:15;10.80;;;4.53;;
70406;SDS011;57821;52.202;0.154;2023-04-01T03:02:42;10.65;;;4.45;;
70406;SDS011;57821;52.202;0.154;2023-04-01T03:05:09;10.48;;;4.68;;
70406;SDS011;57821;52.202;0.154;2023-04-01T03:07:36;9.65;;;4.38;;
70406;SDS011;57821;52.202;0.154;2023-04-01T03:10:02;12.15;;;4.53;;
70406;SDS011;57821;52.202;0.154;2023-04-01T03:12:29;9.30;;;4.65;;
70406;SDS011;57821;52.202;0.154;2023-04-01T03:14:56;12.98;;;5.10;;
70406;SDS011;57821;52.202;0.154;2023-04-01T03:17:36;12.30;;;4.78;;
70406;SDS011;57821;52.202;0.154;2023-04-01T03:20:03;15.75;;;6.25;;
70406;SDS011;57821;52.202;0.154;2023-04-01T03:22:31;11.45;;;5.53;;
70406;SDS011;57821;52.202;0.154;2023-04-01T03:24:57;12.70;;;6.00;;
70406;SDS011;57821;52.202;0.154;2023-04-01T03:27:24;13.18;;;6.13;;
70406;SDS011;57821;52.202;0.154;2023-04-01T03:29:51;14.40;;;6.13;;
70406;SDS011;57821;52.202;0.154;2023-04-01T03:32:18;14.75;;;5.80;;
70406;SDS011;57821;52.202;0.154;2023-04-01T03:34:44;13.90;;;6.13;;
70406;SDS011;57821;52.202;0.154;2023-04-01T03:37:12;14.88;;;6.72;;
70406;SDS011;57821;52.202;0.154;2023-04-01T03:39:39;18.67;;;7.18;;
70406;SDS011;57821;52.202;0.154;2023-04-01T03:42:08;14.77;;;6.97;;
70406;SDS011;57821;52.202;0.154;2023-04-01T03:44:35;20.50;;;7.50;;
70406;SDS011;57821;52.202;0.154;2023-04-01T03:47:02;18.70;;;7.78;;
70406;SDS011;57821;52.202;0.154;2023-04-01T03:49:28;13.35;;;6.72;;
70406;SDS011;57821;52.202;0.154;2023-04-01T03:51:55;11.15;;;5.70;;
70406;SDS011;57821;52.202;0.154;2023-04-01T03:54:22;12.40;;;5.28;;
70406;SDS011;57821;52.202;0.154;2023-04-01T03:56:48;11.32;;;5.15;;
70406;SDS011;57821;52.202;0.154;2023-04-01T03:59:15;13.52;;;5.32;;
70406;SDS011;57821;52.202;0.154;2023-04-01T04:01:42;10.60;;;6.35;;
70406;SDS011;57821;52.202;0.154;2023-04-01T04:04:10;12.88;;;6.45;;
70406;SDS011;57821;52.202;0.154;2023-04-01T04:06:38;17.63;;;6.97;;
70406;SDS011;57821;52.202;0.154;2023-04-01T04:09:04;18.42;;;7.25;;
70406;SDS011;57821;52.202;0.154;2023-04-01T04:11:32;14.75;;;6.75;;
70406;SDS011;57821;52.202;0.154;2023-04-01T04:13:59;17.25;;;6.03;;
70406;SDS011;57821;52.202;0.154;2023-04-01T04:16:25;16.88;;;6.88;;
70406;SDS011;57821;52.202;0.154;2023-04-01T04:18:56;13.18;;;5.63;;
70406;SDS011;57821;52.202;0.154;2023-04-01T04:21:23;15.35;;;5.75;;
70406;SDS011;57821;52.202;0.154;2023-04-01T04:23:50;15.68;;;4.88;;
70406;SDS011;57821;52.202;0.154;2023-04-01T04:26:18;13.68;;;5.40;;
70406;SDS011;57821;52.202;0.154;2023-04-01T04:28:53;13.48;;;4.32;;
70406;SDS011;57821;52.202;0.154;2023-04-01T04:31:21;16.70;;;5.22;;
70406;SDS011;57821;52.202;0.154;2023-04-01T04:33:51;12.65;;;5.15;;
70406;SDS011;57821;52.202;0.154;2023-04-01T04:36:18;10.73;;;4.93;;
70406;SDS011;57821;52.202;0.154;2023-04-01T04:38:47;14.32;;;5.60;;
70406;SDS011;57821;52.202;0.154;2023-04-01T04:41:15;14.40;;;6.35;;
70406;SDS011;57821;52.202;0.154;2023-04-01T04:43:54;20.55;;;6.20;;
70406;SDS011;57821;52.202;0.154;2023-04-01T04:46:23;13.32;;;5.55;;
70406;SDS011;57821;52.202;0.154;2023-04-01T04:48:56;12.48;;;5.25;;
70406;SDS011;57821;52.202;0.154;2023-04-01T04:51:23;15.68;;;5.45;;
70406;SDS011;57821;52.202;0.154;2023-04-01T04:53:50;12.30;;;5.72;;
70406;SDS011;57821;52.202;0.154;2023-04-01T04:56:25;15.95;;;5.30;;
70406;SDS011;57821;52.202;0.154;2023-04-01T04:59:05;13.75;;;5.93;;
70406;SDS011;57821;52.202;0.154;2023-04-01T05:01:40;12.55;;;5.10;;
70406;SDS011;57821;52.202;0.154;2023-04-01T05:04:07;9.50;;;4.82;;
70406;SDS011;57821;52.202;0.154;2023-04-01T05:06:34;10.82;;;5.50;;
70406;SDS011;57821;52.202;0.154;2023-04-01T05:09:01;11.13;;;5.78;;
70406;SDS011;57821;52.202;0.154;2023-04-01T05:11:27;16.20;;;5.28;;
70406;SDS011;57821;52.202;0.154;2023-04-01T05:13:55;13.23;;;4.85;;
70406;SDS011;57821;52.202;0.154;2023-04-01T05:16:22;12.07;;;5.00;;
70406;SDS011;57821;52.202;0.154;2023-04-01T05:18:48;11.55;;;5.38;;
70406;SDS011;57821;52.202;0.154;2023-04-01T05:21:15;13.23;;;4.70;;
70406;SDS011;57821;52.202;0.154;2023-04-01T05:23:42;13.68;;;5.30;;
70406;SDS011;57821;52.202;0.154;2023-04-01T05:26:12;13.88;;;5.30;;
70406;SDS011;57821;52.202;0.154;2023-04-01T05:28:41;13.65;;;5.30;;
70406;SDS011;57821;52.202;0.154;2023-04-01T05:31:08;10.77;;;4.80;;
70406;SDS011;57821;52.202;0.154;2023-04-01T05:33:38;10.73;;;4.40;;
70406;SDS011;57821;52.202;0.154;2023-04-01T05:36:05;15.25;;;5.43;;
70406;SDS011;57821;52.202;0.154;2023-04-01T05:38:40;13.75;;;5.00;;
70406;SDS011;57821;52.202;0.154;2023-04-01T05:41:09;11.55;;;4.32;;
70406;SDS011;57821;52.202;0.154;2023-04-01T05:43:40;10.57;;;4.80;;
70406;SDS011;57821;52.202;0.154;2023-04-01T05:46:26;13.13;;;4.53;;
70406;SDS011;57821;52.202;0.154;2023-04-01T05:48:58;11.43;;;4.30;;
70406;SDS011;57821;52.202;0.154;2023-04-01T05:51:25;12.02;;;4.93;;
70406;SDS011;57821;52.202;0.154;2023-04-01T05:53:52;13.00;;;4.20;;
70406;SDS011;57821;52.202;0.154;2023-04-01T05:56:18;11.98;;;4.50;;
70406;SDS011;57821;52.202;0.154;2023-04-01T05:58:50;11.52;;;3.78;;
70406;SDS011;57821;52.202;0.154;2023-04-01T06:01:19;11.25;;;4.38;;
70406;SDS011;57821;52.202;0.154;2023-04-01T06:03:47;11.90;;;4.95;;
70406;SDS011;57821;52.202;0.154;2023-04-01T06:06:23;15.80;;;4.82;;
70406;SDS011;57821;52.202;0.154;2023-04-01T06:08:55;12.55;;;5.28;;
70406;SDS011;57821;52.202;0.154;2023-04-01T06:19:27;16.20;;;5.50;;
70406;SDS011;57821;52.202;0.154;2023-04-01T06:30:30;14.73;;;4.70;;
70406;SDS011;57821;52.202;0.154;2023-04-01T06:41:21;13.48;;;4.47;;
70406;SDS011;57821;52.202;0.154;2023-04-01T06:44:09;16.15;;;4.90;;
70406;SDS011;57821;52.202;0.154;2023-04-01T06:56:02;16.35;;;4.93;;
70406;SDS011;57821;52.202;0.154;2023-04-01T06:58:39;12.18;;;4.35;;
70406;SDS011;57821;52.202;0.154;2023-04-01T07:01:12;12.48;;;5.00;;
70406;SDS011;57821;52.202;0.154;2023-04-01T07:03:44;14.90;;;5.25;;
70406;SDS011;57821;52.202;0.154;2023-04-01T07:06:26;19.48;;;5.00;;
70406;SDS011;57821;52.202;0.154;2023-04-01T07:08:59;23.05;;;8.07;;
70406;SDS011;57821;52.202;0.154;2023-04-01T07:11:52;16.10;;;5.72;;
70406;SDS011;57821;52.202;0.154;2023-04-01T07:14:41;19.23;;;5.30;;
70406;SDS011;57821;52.202;0.154;2023-04-01T07:17:29;25.75;;;8.88;;
70406;SDS011;57821;52.202;0.154;2023-04-01T07:20:11;17.45;;;7.00;;
70406;SDS011;57821;52.202;0.154;2023-04-01T07:22:45;15.43;;;5.18;;
70406;SDS011;57821;52.202;0.154;2023-04-01T07:25:43;20.00;;;5.57;;
70406;SDS011;57821;52.202;0.154;2023-04-01T07:28:31;22.58;;;6.80;;
70406;SDS011;57821;52.202;0.154;2023-04-01T07:31:20;19.10;;;6.88;;
70406;SDS011;57821;52.202;0.154;2023-04-01T07:36:25;16.20;;;5.72;;
70406;SDS011;57821;52.202;0.154;2023-04-01T07:39:36;19.88;;;4.97;;
70406;SDS011;57821;52.202;0.154;2023-04-01T07:42:57;20.48;;;5.82;;
70406;SDS011;57821;52.202;0.154;2023-04-01T07:45:20;13.80;;;5.43;;
70406;SDS011;57821;52.202;0.154;2023-04-01T07:48:20;19.63;;;6.20;;
70406;SDS011;57821;52.202;0.154;2023-04-01T07:51:04;17.33;;;5.50;;
70406;SDS011;57821;52.202;0.154;2023-04-01T07:53:51;16.52;;;5.50;;
70406;SDS011;57821;52.202;0.154;2023-04-01T07:56:49;24.27;;;5.85;;
70406;SDS011;57821;52.202;0.154;2023-04-01T08:11:19;16.50;;;5.00;;
70406;SDS011;57821;52.202;0.154;2023-04-01T08:17:19;17.63;;;4.22;;
70406;SDS011;57821;52.202;0.154;2023-04-01T08:20:08;19.67;;;5.45;;
70406;SDS011;57821;52.202;0.154;2023-04-01T08:23:11;16.90;;;5.20;;
70406;SDS011;57821;52.202;0.154;2023-04-01T08:26:00;18.23;;;4.68;;
70406;SDS011;57821;52.202;0.154;2023-04-01T08:28:40;19.13;;;4.55;;
70406;SDS011;57821;52.202;0.154;2023-04-01T08:31:23;16.70;;;4.93;;
70406;SDS011;57821;52.202;0.154;2023-04-01T08:34:04;12.23;;;4.22;;
70406;SDS011;57821;52.202;0.154;2023-04-01T08:36:42;20.17;;;4.43;;
70406;SDS011;57821;52.202;0.154;2023-04-01T08:39:16;16.15;;;4.65;;
70406;SDS011;57821;52.202;0.154;2023-04-01T08:42:12;20.23;;;4.50;;
70406;SDS011;57821;52.202;0.154;2023-04-01T08:56:34;20.65;;;4.80;;
70406;SDS011;57821;52.202;0.154;2023-04-01T09:05:45;23.52;;;5.25;;
70406;SDS011;57821;52.202;0.154;2023-04-01T09:14:23;18.17;;;4.43;;
70406;SDS011;57821;52.202;0.154;2023-04-01T09:20:42;22.35;;;6.00;;
70406;SDS011;57821;52.202;0.154;2023-04-01T09:23:29;24.92;;;6.35;;
70406;SDS011;57821;52.202;0.154;2023-04-01T09:35:18;16.23;;;3.35;;
70406;SDS011;57821;52.202;0.154;2023-04-01T09:44:03;23.73;;;5.50;;
70406;SDS011;57821;52.202;0.154;2023-04-01T09:49:36;21.20;;;3.25;;
70406;SDS011;57821;52.202;0.154;2023-04-01T09:55:06;16.63;;;3.15;;
70406;SDS011;57821;52.202;0.154;2023-04-01T09:59:09;17.95;;;3.80;;
70406;SDS011;57821;52.202;0.154;2023-04-01T10:06:37;19.75;;;3.65;;
70406;SDS011;57821;52.202;0.154;2023-04-01T10:23:40;20.55;;;3.28;;
70406;SDS011;57821;52.202;0.154;2023-04-01T10:29:17;20.02;;;3.65;;
70406;SDS011;57821;52.202;0.154;2023-04-01T10:41:27;15.35;;;3.88;;
70406;SDS011;57821;52.202;0.154;2023-04-01T11:02:25;14.45;;;3.78;;
70406;SDS011;57821;52.202;0.154;2023-04-01T11:14:01;20.52;;;3.78;;
70406;SDS011;57821;52.202;0.154;2023-04-01T11:25:23;16.63;;;3.25;;
70406;SDS011;57821;52.202;0.154;2023-04-01T11:28:35;15.13;;;2.92;;
70406;SDS011;57821;52.202;0.154;2023-04-01T11:42:07;16.90;;;3.85;;
70406;SDS011;57821;52.202;0.154;2023-04-01T11:45:07;18.52;;;3.78;;
70406;SDS011;57821;52.202;0.154;2023-04-01T11:50:31;17.27;;;3.65;;
70406;SDS011;57821;52.202;0.154;2023-04-01T12:01:33;12.05;;;3.90;;
70406;SDS011;57821;52.202;0.154;2023-04-01T12:15:27;16.83;;;5.78;;
70406;SDS011;57821;52.202;0.154;2023-04-01T12:23:51;19.23;;;4.80;;
70406;SDS011;57821;52.202;0.154;2023-04-01T12:37:39;18.05;;;4.60;;
70406;SDS011;57821;52.202;0.154;2023-04-01T12:40:17;15.45;;;4.53;;
70406;SDS011;57821;52.202;0.154;2023-04-01T12:45:37;13.55;;;2.65;;
70406;SDS011;57821;52.202;0.154;2023-04-01T13:10:38;17.02;;;4.57;;
70406;SDS011;57821;52.202;0.154;2023-04-01T13:18:27;11.65;;;3.53;;
70406;SDS011;57821;52.202;0.154;2023-04-01T13:23:30;7.15;;;2.90;;
70406;SDS011;57821;52.202;0.154;2023-04-01T13:34:05;11.77;;;3.50;;
70406;SDS011;57821;52.202;0.154;2023-04-01T13:42:05;8.25;;;3.25;;
70406;SDS011;57821;52.202;0.154;2023-04-01T13:44:50;10.68;;;3.92;;
70406;SDS011;57821;52.202;0.154;2023-04-01T13:50:37;11.15;;;4.30;;
70406;SDS011;57821;52.202;0.154;2023-04-01T14:07:05;9.43;;;3.28;;
70406;SDS011;57821;52.202;0.154;2023-04-01T14:12:31;9.65;;;3.17;;
70406;SDS011;57821;52.202;0.154;2023-04-01T14:15:34;8.57;;;3.30;;
70406;SDS011;57821;52.202;0.154;2023-04-01T14:21:29;9.93;;;4.10;;
70406;SDS011;57821;52.202;0.154;2023-04-01T14:35:19;11.57;;;3.72;;
70406;SDS011;57821;52.202;0.154;2023-04-01T14:38:02;8.60;;;3.00;;
70406;SDS011;57821;52.202;0.154;2023-04-01T14:44:05;9.60;;;3.20;;
70406;SDS011;57821;52.202;0.154;2023-04-01T14:46:40;11.18;;;3.35;;
70406;SDS011;57821;52.202;0.154;2023-04-01T14:49:22;12.82;;;3.72;;
70406;SDS011;57821;52.202;0.154;2023-04-01T14:51:57;8.50;;;3.13;;
70406;SDS011;57821;52.202;0.154;2023-04-01T14:54:33;7.30;;;2.90;;
70406;SDS011;57821;52.202;0.154;2023-04-01T14:57:10;8.77;;;3.10;;
70406;SDS011;57821;52.202;0.154;2023-04-01T14:59:45;12.13;;;3.53;;
70406;SDS011;57821;52.202;0.154;2023-04-01T15:02:31;7.32;;;3.50;;
70406;SDS011;57821;52.202;0.154;2023-04-01T15:05:28;10.95;;;4.20;;
70406;SDS011;57821;52.202;0.154;2023-04-01T15:22:15;14.48;;;4.85;;
70406;SDS011;57821;52.202;0.154;2023-04-01T15:25:02;11.45;;;3.10;;
70406;SDS011;57821;52.202;0.154;2023-04-01T15:31:04;8.77;;;3.00;;
70406;SDS011;57821;52.202;0.154;2023-04-01T15:33:42;8.95;;;2.90;;
70406;SDS011;57821;52.202;0.154;2023-04-01T15:38:49;8.23;;;2.75;;
70406;SDS011;57821;52.202;0.154;2023-04-01T15:44:24;10.63;;;2.40;;
70406;SDS011;57821;52.202;0.154;2023-04-01T15:46:54;7.40;;;2.17;;
70406;SDS011;57821;52.202;0.154;2023-04-01T15:58:45;10.23;;;3.33;;
70406;SDS011;57821;52.202;0.154;2023-04-01T16:03:39;8.07;;;2.25;;
70406;SDS011;57821;52.202;0.154;2023-04-01T16:06:16;12.68;;;2.55;;
70406;SDS011;57821;52.202;0.154;2023-04-01T16:19:41;7.32;;;2.25;;
70406;SDS011;57821;52.202;0.154;2023-04-01T16:25:21;5.28;;;1.60;;
70406;SDS011;57821;52.202;0.154;2023-04-01T16:28:13;5.03;;;1.33;;
70406;SDS011;57821;52.202;0.154;2023-04-01T16:30:44;6.07;;;2.00;;
70406;SDS011;57821;52.202;0.154;2023-04-01T16:41:35;6.05;;;1.80;;
70406;SDS011;57821;52.202;0.154;2023-04-01T16:46:44;6.38;;;1.90;;
70406;SDS011;57821;52.202;0.154;2023-04-01T16:49:24;6.28;;;2.08;;
70406;SDS011;57821;52.202;0.154;2023-04-01T16:57:51;11.43;;;2.95;;
70406;SDS011;57821;52.202;0.154;2023-04-01T17:05:49;7.50;;;3.05;;
70406;SDS011;57821;52.202;0.154;2023-04-01T17:14:13;12.25;;;2.80;;
70406;SDS011;57821;52.202;0.154;2023-04-01T17:22:53;12.80;;;2.97;;
70406;SDS011;57821;52.202;0.154;2023-04-01T17:25:34;9.85;;;2.28;;
70406;SDS011;57821;52.202;0.154;2023-04-01T17:31:02;14.30;;;2.17;;
70406;SDS011;57821;52.202;0.154;2023-04-01T17:33:35;9.05;;;1.95;;
70406;SDS011;57821;52.202;0.154;2023-04-01T17:41:54;9.38;;;2.15;;
70406;SDS011;57821;52.202;0.154;2023-04-01T17:52:54;8.75;;;2.20;;
70406;SDS011;57821;52.202;0.154;2023-04-01T17:55:38;9.57;;;2.72;;
70406;SDS011;57821;52.202;0.154;2023-04-01T17:58:19;8.18;;;1.88;;
70406;SDS011;57821;52.202;0.154;2023-04-01T18:09:00;9.93;;;2.60;;
70406;SDS011;57821;52.202;0.154;2023-04-01T18:38:50;14.02;;;4.07;;
70406;SDS011;57821;52.202;0.154;2023-04-01T18:49:30;6.13;;;1.60;;
70406;SDS011;57821;52.202;0.154;2023-04-01T18:52:10;9.13;;;2.20;;
70406;SDS011;57821;52.202;0.154;2023-04-01T18:58:12;12.23;;;2.33;;
70406;SDS011;57821;52.202;0.154;2023-04-01T19:00:21;10.60;;;2.40;;
70406;SDS011;57821;52.202;0.154;2023-04-01T19:03:00;9.93;;;1.70;;
70406;SDS011;57821;52.202;0.154;2023-04-01T19:05:36;9.70;;;1.98;;
70406;SDS011;57821;52.202;0.154;2023-04-01T19:13:51;11.68;;;1.60;;
70406;SDS011;57821;52.202;0.154;2023-04-01T19:16:43;6.40;;;1.42;;
70406;SDS011;57821;52.202;0.154;2023-04-01T19:19:22;7.13;;;1.50;;
70406;SDS011;57821;52.202;0.154;2023-04-01T19:27:27;6.60;;;1.50;;
70406;SDS011;57821;52.202;0.154;2023-04-01T19:35:24;5.28;;;1.48;;
70406;SDS011;57821;52.202;0.154;2023-04-01T19:38:04;6.18;;;2.10;;
70406;SDS011;57821;52.202;0.154;2023-04-01T20:00:22;5.90;;;1.50;;
70406;SDS011;57821;52.202;0.154;2023-04-01T20:16:14;9.68;;;2.97;;
70406;SDS011;57821;52.202;0.154;2023-04-01T20:24:01;7.25;;;2.30;;
70406;SDS011;57821;52.202;0.154;2023-04-01T20:26:41;7.28;;;2.60;;
70406;SDS011;57821;52.202;0.154;2023-04-01T20:29:27;8.93;;;2.20;;
70406;SDS011;57821;52.202;0.154;2023-04-01T20:37:12;6.80;;;1.90;;
70406;SDS011;57821;52.202;0.154;2023-04-01T20:45:23;6.88;;;1.38;;
70406;SDS011;57821;52.202;0.154;2023-04-01T20:53:44;7.45;;;2.55;;
70406;SDS011;57821;52.202;0.154;2023-04-01T20:56:31;10.52;;;2.67;;
70406;SDS011;57821;52.202;0.154;2023-04-01T21:04:43;6.18;;;1.67;;
70406;SDS011;57821;52.202;0.154;2023-04-01T21:07:28;6.93;;;2.50;;
70406;SDS011;57821;52.202;0.154;2023-04-01T21:10:17;6.78;;;2.20;;
70406;SDS011;57821;52.202;0.154;2023-04-01T21:13:03;8.57;;;3.58;;
70406;SDS011;57821;52.202;0.154;2023-04-01T21:18:50;14.32;;;3.42;;
70406;SDS011;57821;52.202;0.154;2023-04-01T21:35:09;7.32;;;1.88;;
70406;SDS011;57821;52.202;0.154;2023-04-01T22:06:28;8.43;;;2.63;;
70406;SDS011;57821;52.202;0.154;2023-04-01T22:09:10;9.85;;;3.53;;
70406;SDS011;57821;52.202;0.154;2023-04-01T22:12:02;10.95;;;3.28;;
70406;SDS011;57821;52.202;0.154;2023-04-01T22:14:53;9.13;;;4.35;;
70406;SDS011;57821;52.202;0.154;2023-04-01T22:18:06;9.52;;;2.80;;
70406;SDS011;57821;52.202;0.154;2023-04-01T22:20:48;7.95;;;3.35;;
70406;SDS011;57821;52.202;0.154;2023-04-01T22:23:26;9.95;;;3.22;;
70406;SDS011;57821;52.202;0.154;2023-04-01T22:26:05;7.80;;;2.30;;
70406;SDS011;57821;52.202;0.154;2023-04-01T22:28:38;8.50;;;3.55;;
70406;SDS011;57821;52.202;0.154;2023-04-01T22:31:08;8.68;;;3.00;;
70406;SDS011;57821;52.202;0.154;2023-04-01T22:49:57;11.32;;;3.90;;
70406;SDS011;57821;52.202;0.154;2023-04-01T22:52:33;11.40;;;3.63;;
70406;SDS011;57821;52.202;0.154;2023-04-01T22:58:19;11.73;;;4.25;;
70406;SDS011;57821;52.202;0.154;2023-04-01T23:00:52;8.80;;;3.45;;
70406;SDS011;57821;52.202;0.154;2023-04-01T23:05:59;13.02;;;3.72;;
70406;SDS011;57821;52.202;0.154;2023-04-01T23:09:28;11.48;;;3.40;;
70406;SDS011;57821;52.202;0.154;2023-04-01T23:11:44;14.30;;;4.03;;
70406;SDS011;57821;52.202;0.154;2023-04-01T23:16:50;9.02;;;3.83;;
70406;SDS011;57821;52.202;0.154;2023-04-01T23:19:19;14.43;;;4.55;;
70406;SDS011;57821;52.202;0.154;2023-04-01T23:21:59;10.95;;;4.53;;
70406;SDS011;57821;52.202;0.154;2023-04-01T23:24:43;12.32;;;4.32;;
70406;SDS011;57821;52.202;0.154;2023-04-01T23:27:19;11.43;;;4.13;;
70406;SDS011;57821;52.202;0.154;2023-04-01T23:29:51;9.68;;;4.97;;
70406;SDS011;57821;52.202;0.154;2023-04-01T23:32:18;16.17;;;4.70;;
70406;SDS011;57821;52.202;0.154;2023-04-01T23:34:49;9.77;;;3.88;;
70406;SDS011;57821;52.202;0.154;2023-04-01T23:37:17;13.35;;;4.32;;
70406;SDS011;57821;52.202;0.154;2023-04-01T23:39:45;12.60;;;4.32;;
70406;SDS011;57821;52.202;0.154;2023-04-01T23:44:53;17.55;;;4.85;;
70406;SDS011;57821;52.202;0.154;2023-04-01T23:47:24;14.98;;;5.60;;
70406;SDS011;57821;52.202;0.154;2023-04-01T23:49:59;20.15;;;5.68;;
70406;SDS011;57821;52.202;0.154;2023-04-01T23:52:31;12.45;;;5.00;;
70406;SDS011;57821;52.202;0.154;2023-04-01T23:55:17;13.20;;;6.22;;
70406;SDS011;57821;52.202;0.154;2023-04-01T23:58:00;23.52;;;5.70;;
